Macau International Airport
VMMC : now visible

Airfield :











YOU CAN JOIN US ON...

 
LOGIN :

Register | Disclaimer

   EN    FR    IT 

 









Legend :    VFR   Marginal VFR   IFR   Intensive IFR   Very Intensive IFR
Visi :
Ceiling :
>= 8 km
>= 3000ft
5 to 8 km
1000 to 3000 ft
1500m to 5 km
500 to 1000 ft
800 to 1500m
200 to 500 ft
< 800m
< 200 ft
Symbols :   Thunderstorms  Fog  Heavy snow  Heavy precipitations  Wind > 20 kt






- Airport Elevation : 20 ft
- IATA code : MFM


VMMC - Macau International

CURRENT METAR :
  • 140700Z 12003KT 070V160 CAVOK 21/15 Q1019 NOSIG

EXPIRED METARs :
  • 140630Z 11004KT 040V150 CAVOK 21/15 Q1020 NOSIG
  • 140600Z 10003KT 050V180 CAVOK 21/15 Q1020 NOSIG
  • 140530Z VRB03KT CAVOK 21/15 Q1021 NOSIG
  • 140500Z VRB03KT CAVOK 21/15 Q1021 NOSIG
  • 140430Z 04003KT 350V070 CAVOK 21/15 Q1022 NOSIG

TAF TAF VMMC
Valid from the 14 at 06:00 until the 15 at 12:00 UTC


140500Z 1406/1512 10010KT 9000 NSC
TEMPO 1406/1408 04008KT



MET'MAP, your aeronautical weather chart ! - Copyright ORBIFLY December 2007 - Disclaimer

ORBIFLY MET'MAP TEAM :

Programming & Development : Alexandra Zaïnal
Concept & original design : Baudouin d'Aumeries
Assistance for programming : Marc-Olivier Méhu
Technical & hardware support : Manuel Goepfert

Contact : metmap@orbifly.com




SOURCES & CREDITS :

   NOAA       Earth
Advisory